sensor_id;sensor_type;location;lat;lon;timestamp;pressure;altitude;pressure_sealevel;temperature;humidity
58245;BME280;44550;43.864;25.986;2023-06-26T11:45:44;100689.38;;;26.07;84.95
58245;BME280;44550;43.864;25.986;2023-06-26T11:49:47;100694.41;;;26.13;82.20
58245;BME280;44550;43.864;25.986;2023-06-26T11:54:00;100689.59;;;27.07;76.28
58245;BME280;44550;43.864;25.986;2023-06-26T11:58:24;100688.34;;;27.27;71.44
58245;BME280;44550;43.864;25.986;2023-06-26T12:02:44;100669.94;;;27.35;72.72
58245;BME280;44550;43.864;25.986;2023-06-26T12:06:49;100677.00;;;27.92;72.52
58245;BME280;44550;43.864;25.986;2023-06-26T12:10:51;100674.84;;;27.97;71.17
58245;BME280;44550;43.864;25.986;2023-06-26T12:15:22;100662.13;;;27.86;71.08
58245;BME280;44550;43.864;25.986;2023-06-26T12:19:43;100651.72;;;27.68;70.09
58245;BME280;44550;43.864;25.986;2023-06-26T12:23:58;100650.31;;;27.62;71.09
58245;BME280;44550;43.864;25.986;2023-06-26T12:28:16;100648.78;;;28.12;68.48
58245;BME280;44550;43.864;25.986;2023-06-26T12:32:20;100647.97;;;27.97;69.60
58245;BME280;44550;43.864;25.986;2023-06-26T12:36:24;100653.00;;;27.89;65.92
58245;BME280;44550;43.864;25.986;2023-06-26T12:40:56;100657.88;;;27.97;68.86
58245;BME280;44550;43.864;25.986;2023-06-26T12:45:44;100647.91;;;28.24;68.08
58245;BME280;44550;43.864;25.986;2023-06-26T12:49:50;100655.22;;;28.09;67.89
58245;BME280;44550;43.864;25.986;2023-06-26T12:53:54;100647.44;;;28.70;65.47
58245;BME280;44550;43.864;25.986;2023-06-26T12:57:55;100654.88;;;29.05;63.17
58245;BME280;44550;43.864;25.986;2023-06-26T13:01:55;100652.50;;;28.49;63.85
58245;BME280;44550;43.864;25.986;2023-06-26T13:05:57;100640.66;;;28.39;64.92
58245;BME280;44550;43.864;25.986;2023-06-26T13:10:00;100660.25;;;28.01;67.54
58245;BME280;44550;43.864;25.986;2023-06-26T13:14:07;100651.78;;;28.20;67.05
58245;BME280;44550;43.864;25.986;2023-06-26T13:18:22;100649.09;;;28.20;68.59
58245;BME280;44550;43.864;25.986;2023-06-26T13:22:24;100660.41;;;28.25;68.66
58245;BME280;44550;43.864;25.986;2023-06-26T13:26:28;100652.72;;;28.46;66.25
58245;BME280;44550;43.864;25.986;2023-06-26T13:30:33;100654.13;;;28.65;64.92
58245;BME280;44550;43.864;25.986;2023-06-26T13:34:50;100663.59;;;28.83;64.39
58245;BME280;44550;43.864;25.986;2023-06-26T13:39:07;100657.00;;;28.87;64.76
58245;BME280;44550;43.864;25.986;2023-06-26T13:43:12;100659.00;;;29.35;62.95
58245;BME280;44550;43.864;25.986;2023-06-26T13:47:54;100650.09;;;29.34;61.52
58245;BME280;44550;43.864;25.986;2023-06-26T13:53:00;100655.19;;;29.00;62.84
58245;BME280;44550;43.864;25.986;2023-06-26T13:57:46;100661.66;;;29.11;61.29
58245;BME280;44550;43.864;25.986;2023-06-26T14:02:52;100652.28;;;28.91;61.07
58245;BME280;44550;43.864;25.986;2023-06-26T14:07:28;100652.06;;;28.43;63.96
58245;BME280;44550;43.864;25.986;2023-06-26T14:11:56;100649.19;;;28.46;62.77
58245;BME280;44550;43.864;25.986;2023-06-26T14:16:16;100647.56;;;28.82;62.75
58245;BME280;44550;43.864;25.986;2023-06-26T14:20:25;100652.31;;;28.13;64.38
58245;BME280;44550;43.864;25.986;2023-06-26T14:24:28;100652.19;;;28.41;62.87
58245;BME280;44550;43.864;25.986;2023-06-26T14:28:30;100652.66;;;28.21;63.18
58245;BME280;44550;43.864;25.986;2023-06-26T14:32:35;100654.47;;;27.80;64.35
58245;BME280;44550;43.864;25.986;2023-06-26T14:36:40;100650.16;;;28.05;63.79
58245;BME280;44550;43.864;25.986;2023-06-26T14:40:58;100648.75;;;28.39;61.55
58245;BME280;44550;43.864;25.986;2023-06-26T14:45:00;100652.94;;;28.69;62.00
58245;BME280;44550;43.864;25.986;2023-06-26T14:49:03;100655.72;;;28.80;61.22
58245;BME280;44550;43.864;25.986;2023-06-26T14:53:23;100653.38;;;28.75;60.91
58245;BME280;44550;43.864;25.986;2023-06-26T14:57:28;100659.53;;;28.65;60.94
58245;BME280;44550;43.864;25.986;2023-06-26T15:01:33;100663.94;;;28.78;62.47
58245;BME280;44550;43.864;25.986;2023-06-26T15:05:37;100652.41;;;28.64;60.23
58245;BME280;44550;43.864;25.986;2023-06-26T15:09:48;100662.19;;;28.90;61.56
58245;BME280;44550;43.864;25.986;2023-06-26T15:13:50;100660.56;;;29.13;59.93
58245;BME280;44550;43.864;25.986;2023-06-26T15:17:52;100661.31;;;29.52;59.33
58245;BME280;44550;43.864;25.986;2023-06-26T15:21:53;100649.34;;;28.94;59.03
58245;BME280;44550;43.864;25.986;2023-06-26T15:25:57;100630.66;;;29.05;59.50
58245;BME280;44550;43.864;25.986;2023-06-26T15:30:01;100640.56;;;29.05;59.44
58245;BME280;44550;43.864;25.986;2023-06-26T15:34:11;100631.84;;;28.88;59.28
58245;BME280;44550;43.864;25.986;2023-06-26T15:38:18;100644.66;;;28.46;61.13
58245;BME280;44550;43.864;25.986;2023-06-26T15:42:27;100656.41;;;28.31;61.28
58245;BME280;44550;43.864;25.986;2023-06-26T15:46:48;100647.56;;;28.43;60.07
58245;BME280;44550;43.864;25.986;2023-06-26T15:50:59;100645.44;;;28.61;60.34
58245;BME280;44550;43.864;25.986;2023-06-26T15:55:23;100651.75;;;28.47;60.37
58245;BME280;44550;43.864;25.986;2023-06-26T15:59:41;100652.13;;;28.28;61.80
58245;BME280;44550;43.864;25.986;2023-06-26T16:03:51;100653.69;;;28.45;61.54
58245;BME280;44550;43.864;25.986;2023-06-26T16:07:58;100655.28;;;28.35;61.33
58245;BME280;44550;43.864;25.986;2023-06-26T16:12:21;100610.94;;;28.15;62.17
58245;BME280;44550;43.864;25.986;2023-06-26T16:16:43;100645.63;;;28.58;61.82
58245;BME280;44550;43.864;25.986;2023-06-26T16:21:26;100641.41;;;28.79;61.52
58245;BME280;44550;43.864;25.986;2023-06-26T16:25:27;100641.31;;;28.81;61.35
58245;BME280;44550;43.864;25.986;2023-06-26T16:30:19;100646.25;;;28.87;61.36
58245;BME280;44550;43.864;25.986;2023-06-26T16:34:29;100638.41;;;28.84;61.55
58245;BME280;44550;43.864;25.986;2023-06-26T16:38:35;100641.63;;;28.64;62.02
58245;BME280;44550;43.864;25.986;2023-06-26T16:42:41;100621.03;;;28.37;62.72
58245;BME280;44550;43.864;25.986;2023-06-26T16:46:46;100644.44;;;28.49;62.97
58245;BME280;44550;43.864;25.986;2023-06-26T16:51:10;100636.75;;;28.30;63.96
58245;BME280;44550;43.864;25.986;2023-06-26T16:55:12;100647.63;;;28.29;64.25
58245;BME280;44550;43.864;25.986;2023-06-26T16:59:19;100635.66;;;28.20;65.08
58245;BME280;44550;43.864;25.986;2023-06-26T17:03:41;100634.91;;;28.18;65.72
58245;BME280;44550;43.864;25.986;2023-06-26T17:08:11;100640.47;;;28.02;66.44
58245;BME280;44550;43.864;25.986;2023-06-26T17:12:19;100640.97;;;27.82;66.71
58245;BME280;44550;43.864;25.986;2023-06-26T17:16:43;100660.81;;;27.79;66.72
58245;BME280;44550;43.864;25.986;2023-06-26T17:20:52;100652.69;;;27.67;67.33
58245;BME280;44550;43.864;25.986;2023-06-26T17:25:02;100667.25;;;27.21;68.88
58245;BME280;44550;43.864;25.986;2023-06-26T17:29:31;100668.59;;;27.28;69.67
58245;BME280;44550;43.864;25.986;2023-06-26T17:33:34;100677.34;;;27.17;70.95
58245;BME280;44550;43.864;25.986;2023-06-26T17:37:41;100671.69;;;27.22;70.86
58245;BME280;44550;43.864;25.986;2023-06-26T17:41:46;100672.03;;;27.02;71.12
58245;BME280;44550;43.864;25.986;2023-06-26T17:45:49;100680.59;;;26.94;70.03
58245;BME280;44550;43.864;25.986;2023-06-26T17:49:56;100678.97;;;27.06;69.75
58245;BME280;44550;43.864;25.986;2023-06-26T17:54:04;100682.78;;;26.87;70.99
58245;BME280;44550;43.864;25.986;2023-06-26T17:58:17;100673.59;;;27.06;70.64
58245;BME280;44550;43.864;25.986;2023-06-26T18:02:25;100669.47;;;27.00;70.84
58245;BME280;44550;43.864;25.986;2023-06-26T18:06:34;100676.84;;;27.11;70.93
58245;BME280;44550;43.864;25.986;2023-06-26T18:10:56;100674.75;;;27.16;71.30
58245;BME280;44550;43.864;25.986;2023-06-26T18:15:40;100676.16;;;27.07;72.73
58245;BME280;44550;43.864;25.986;2023-06-26T18:20:11;100698.22;;;26.84;74.23
58245;BME280;44550;43.864;25.986;2023-06-26T18:49:15;100737.53;;;26.09;83.49
58245;BME280;44550;43.864;25.986;2023-06-26T18:54:23;100743.16;;;25.88;85.36
58245;BME280;44550;43.864;25.986;2023-06-26T18:58:40;100754.03;;;25.53;88.18
58245;BME280;44550;43.864;25.986;2023-06-26T19:02:48;100762.94;;;25.54;88.62
58245;BME280;44550;43.864;25.986;2023-06-26T19:07:06;100758.94;;;25.12;90.96
58245;BME280;44550;43.864;25.986;2023-06-26T19:11:20;100769.44;;;25.33;90.61
58245;BME280;44550;43.864;25.986;2023-06-26T19:15:23;100784.25;;;25.40;90.38
58245;BME280;44550;43.864;25.986;2023-06-26T19:19:25;100783.78;;;25.31;91.05
58245;BME280;44550;43.864;25.986;2023-06-26T19:23:54;100785.13;;;25.23;91.49
58245;BME280;44550;43.864;25.986;2023-06-26T19:28:08;100789.94;;;25.16;92.01
58245;BME280;44550;43.864;25.986;2023-06-26T19:32:45;100793.25;;;25.21;91.64
58245;BME280;44550;43.864;25.986;2023-06-26T19:36:55;100790.56;;;25.04;92.68
58245;BME280;44550;43.864;25.986;2023-06-26T19:41:04;100803.47;;;24.96;93.50
58245;BME280;44550;43.864;25.986;2023-06-26T19:45:23;100799.09;;;24.77;95.35
58245;BME280;44550;43.864;25.986;2023-06-26T19:49:57;100788.72;;;24.71;95.38
58245;BME280;44550;43.864;25.986;2023-06-26T19:54:11;100811.75;;;24.91;94.15
58245;BME280;44550;43.864;25.986;2023-06-26T19:58:19;100814.16;;;24.96;92.40
58245;BME280;44550;43.864;25.986;2023-06-26T20:02:21;100813.31;;;25.13;91.54
58245;BME280;44550;43.864;25.986;2023-06-26T20:06:37;100820.72;;;25.25;90.26
58245;BME280;44550;43.864;25.986;2023-06-26T20:10:44;100818.81;;;25.27;89.50
58245;BME280;44550;43.864;25.986;2023-06-26T20:14:55;100830.22;;;25.30;89.20
58245;BME280;44550;43.864;25.986;2023-06-26T20:18:58;100843.22;;;25.21;89.69
58245;BME280;44550;43.864;25.986;2023-06-26T20:23:08;100843.22;;;25.03;91.06
58245;BME280;44550;43.864;25.986;2023-06-26T20:27:23;100792.41;;;24.69;93.56
58245;BME280;44550;43.864;25.986;2023-06-26T20:31:59;100841.47;;;24.85;96.01
58245;BME280;44550;43.864;25.986;2023-06-26T20:36:09;100834.41;;;24.84;95.92
58245;BME280;44550;43.864;25.986;2023-06-26T20:40:12;100809.53;;;24.65;95.81
58245;BME280;44550;43.864;25.986;2023-06-26T20:44:20;100842.44;;;24.84;95.44
58245;BME280;44550;43.864;25.986;2023-06-26T20:48:27;100841.72;;;24.98;94.56
58245;BME280;44550;43.864;25.986;2023-06-26T20:52:32;100835.03;;;24.89;94.61
58245;BME280;44550;43.864;25.986;2023-06-26T20:56:35;100828.09;;;24.85;94.81
58245;BME280;44550;43.864;25.986;2023-06-26T21:00:52;100829.75;;;24.88;94.64
58245;BME280;44550;43.864;25.986;2023-06-26T21:04:59;100834.41;;;25.01;93.10
58245;BME280;44550;43.864;25.986;2023-06-26T21:09:03;100836.66;;;25.09;91.85
58245;BME280;44550;43.864;25.986;2023-06-26T21:13:15;100840.22;;;24.75;94.73
58245;BME280;44550;43.864;25.986;2023-06-26T21:17:17;100835.03;;;24.72;95.38
58245;BME280;44550;43.864;25.986;2023-06-26T21:21:27;100836.44;;;24.61;96.09
58245;BME280;44550;43.864;25.986;2023-06-26T21:25:34;100817.16;;;24.36;97.05
58245;BME280;44550;43.864;25.986;2023-06-26T21:29:43;100830.53;;;24.36;98.21
58245;BME280;44550;43.864;25.986;2023-06-26T21:33:50;100836.25;;;24.28;98.65
58245;BME280;44550;43.864;25.986;2023-06-26T21:37:57;100827.09;;;24.34;98.52
58245;BME280;44550;43.864;25.986;2023-06-26T21:42:14;100823.22;;;24.03;99.92
58245;BME280;44550;43.864;25.986;2023-06-26T21:46:29;100822.00;;;23.91;100.00
58245;BME280;44550;43.864;25.986;2023-06-26T21:51:18;100813.94;;;23.74;100.00
58245;BME280;44550;43.864;25.986;2023-06-26T21:55:29;100829.94;;;23.74;100.00
58245;BME280;44550;43.864;25.986;2023-06-26T21:59:37;100823.59;;;23.56;100.00
58245;BME280;44550;43.864;25.986;2023-06-26T22:03:43;100824.38;;;23.39;100.00
58245;BME280;44550;43.864;25.986;2023-06-26T22:07:48;100823.31;;;23.23;100.00
58245;BME280;44550;43.864;25.986;2023-06-26T22:11:56;100821.25;;;23.30;100.00
58245;BME280;44550;43.864;25.986;2023-06-26T22:16:06;100824.06;;;23.27;100.00
58245;BME280;44550;43.864;25.986;2023-06-26T22:20:12;100828.19;;;23.34;100.00
58245;BME280;44550;43.864;25.986;2023-06-26T22:24:37;100829.75;;;23.58;100.00
58245;BME280;44550;43.864;25.986;2023-06-26T22:29:06;100815.78;;;23.72;100.00
58245;BME280;44550;43.864;25.986;2023-06-26T22:33:28;100842.94;;;24.01;99.70
58245;BME280;44550;43.864;25.986;2023-06-26T22:37:34;100845.66;;;23.99;99.78
58245;BME280;44550;43.864;25.986;2023-06-26T22:41:42;100847.34;;;24.02;99.90
58245;BME280;44550;43.864;25.986;2023-06-26T22:46:07;100843.81;;;24.01;99.79
58245;BME280;44550;43.864;25.986;2023-06-26T22:50:47;100847.47;;;23.80;100.00
58245;BME280;44550;43.864;25.986;2023-06-26T22:55:12;100851.53;;;23.88;100.00
58245;BME280;44550;43.864;25.986;2023-06-26T22:59:19;100857.06;;;23.84;100.00
58245;BME280;44550;43.864;25.986;2023-06-26T23:03:25;100850.09;;;23.61;100.00
58245;BME280;44550;43.864;25.986;2023-06-26T23:07:27;100847.44;;;23.61;100.00
58245;BME280;44550;43.864;25.986;2023-06-26T23:11:39;100826.09;;;23.61;100.00
58245;BME280;44550;43.864;25.986;2023-06-26T23:15:42;100855.88;;;23.91;99.82
58245;BME280;44550;43.864;25.986;2023-06-26T23:20:01;100850.53;;;23.91;100.00
58245;BME280;44550;43.864;25.986;2023-06-26T23:24:07;100851.38;;;23.73;100.00
58245;BME280;44550;43.864;25.986;2023-06-26T23:28:28;100851.16;;;23.57;100.00
58245;BME280;44550;43.864;25.986;2023-06-26T23:32:42;100851.38;;;23.73;99.77
58245;BME280;44550;43.864;25.986;2023-06-26T23:41:16;100856.78;;;23.51;100.00
58245;BME280;44550;43.864;25.986;2023-06-26T23:45:20;100844.75;;;23.81;99.11
58245;BME280;44550;43.864;25.986;2023-06-26T23:49:34;100841.69;;;23.89;98.23
58245;BME280;44550;43.864;25.986;2023-06-26T23:53:43;100848.75;;;23.90;98.23
58245;BME280;44550;43.864;25.986;2023-06-26T23:57:49;100845.47;;;23.85;97.15
